sensor_id;sensor_type;location;lat;lon;timestamp;temperature;humidity
21662;DHT22;10992;48.170;8.596;2023-07-24T00:01:15;18.20;99.90
21662;DHT22;10992;48.170;8.596;2023-07-24T00:03:42;18.20;99.90
21662;DHT22;10992;48.170;8.596;2023-07-24T00:06:09;18.20;99.90
21662;DHT22;10992;48.170;8.596;2023-07-24T00:08:35;18.00;99.90
21662;DHT22;10992;48.170;8.596;2023-07-24T00:11:02;18.00;99.90
21662;DHT22;10992;48.170;8.596;2023-07-24T00:13:31;17.80;99.90
21662;DHT22;10992;48.170;8.596;2023-07-24T00:15:58;17.60;99.90
21662;DHT22;10992;48.170;8.596;2023-07-24T00:18:25;17.60;99.90
21662;DHT22;10992;48.170;8.596;2023-07-24T00:20:52;17.50;99.90
21662;DHT22;10992;48.170;8.596;2023-07-24T00:23:19;17.40;99.90
21662;DHT22;10992;48.170;8.596;2023-07-24T00:25:46;17.40;99.90
21662;DHT22;10992;48.170;8.596;2023-07-24T00:28:13;17.20;99.90
21662;DHT22;10992;48.170;8.596;2023-07-24T00:30:40;17.10;99.90
21662;DHT22;10992;48.170;8.596;2023-07-24T00:33:08;17.00;99.90
21662;DHT22;10992;48.170;8.596;2023-07-24T00:35:35;16.90;99.90
21662;DHT22;10992;48.170;8.596;2023-07-24T00:38:02;16.80;99.90
21662;DHT22;10992;48.170;8.596;2023-07-24T00:40:29;16.80;99.90
21662;DHT22;10992;48.170;8.596;2023-07-24T00:42:56;16.80;99.90
21662;DHT22;10992;48.170;8.596;2023-07-24T00:45:22;16.80;99.90
21662;DHT22;10992;48.170;8.596;2023-07-24T00:47:50;16.90;99.90
21662;DHT22;10992;48.170;8.596;2023-07-24T00:50:18;16.90;99.90
21662;DHT22;10992;48.170;8.596;2023-07-24T00:52:45;16.90;99.90
21662;DHT22;10992;48.170;8.596;2023-07-24T00:55:13;17.00;99.90
21662;DHT22;10992;48.170;8.596;2023-07-24T00:57:43;17.00;99.90
21662;DHT22;10992;48.170;8.596;2023-07-24T01:00:11;17.00;99.90
21662;DHT22;10992;48.170;8.596;2023-07-24T01:02:38;17.00;99.90
21662;DHT22;10992;48.170;8.596;2023-07-24T01:05:06;17.00;99.90
21662;DHT22;10992;48.170;8.596;2023-07-24T01:07:35;17.00;99.90
21662;DHT22;10992;48.170;8.596;2023-07-24T01:10:03;17.00;99.90
21662;DHT22;10992;48.170;8.596;2023-07-24T01:15:28;17.20;99.90
21662;DHT22;10992;48.170;8.596;2023-07-24T01:18:09;17.20;99.90
21662;DHT22;10992;48.170;8.596;2023-07-24T01:20:40;17.20;99.90
21662;DHT22;10992;48.170;8.596;2023-07-24T01:23:44;17.20;99.90
21662;DHT22;10992;48.170;8.596;2023-07-24T01:26:13;17.10;99.90
21662;DHT22;10992;48.170;8.596;2023-07-24T01:28:40;17.00;99.90
21662;DHT22;10992;48.170;8.596;2023-07-24T01:31:07;16.80;99.90
21662;DHT22;10992;48.170;8.596;2023-07-24T01:33:34;16.70;99.90
21662;DHT22;10992;48.170;8.596;2023-07-24T01:36:03;16.60;99.90
21662;DHT22;10992;48.170;8.596;2023-07-24T01:38:31;16.60;99.90
21662;DHT22;10992;48.170;8.596;2023-07-24T01:41:01;16.40;99.90
21662;DHT22;10992;48.170;8.596;2023-07-24T01:43:29;16.40;99.90
21662;DHT22;10992;48.170;8.596;2023-07-24T01:45:57;16.40;99.90
21662;DHT22;10992;48.170;8.596;2023-07-24T01:48:24;16.30;99.90
21662;DHT22;10992;48.170;8.596;2023-07-24T01:50:53;16.20;99.90
21662;DHT22;10992;48.170;8.596;2023-07-24T01:53:20;16.00;99.90
21662;DHT22;10992;48.170;8.596;2023-07-24T01:55:47;15.90;99.90
21662;DHT22;10992;48.170;8.596;2023-07-24T01:58:14;15.80;99.90
21662;DHT22;10992;48.170;8.596;2023-07-24T02:00:42;15.70;99.90
21662;DHT22;10992;48.170;8.596;2023-07-24T02:03:08;15.70;99.90
21662;DHT22;10992;48.170;8.596;2023-07-24T02:05:36;15.60;99.90
21662;DHT22;10992;48.170;8.596;2023-07-24T02:08:03;15.70;99.90
21662;DHT22;10992;48.170;8.596;2023-07-24T02:10:30;15.70;99.90
21662;DHT22;10992;48.170;8.596;2023-07-24T02:12:59;15.60;99.90
21662;DHT22;10992;48.170;8.596;2023-07-24T02:15:27;15.60;99.90
21662;DHT22;10992;48.170;8.596;2023-07-24T02:17:54;15.50;99.90
21662;DHT22;10992;48.170;8.596;2023-07-24T02:20:21;15.50;99.90
21662;DHT22;10992;48.170;8.596;2023-07-24T02:22:48;15.50;99.90
21662;DHT22;10992;48.170;8.596;2023-07-24T02:25:15;15.70;99.90
21662;DHT22;10992;48.170;8.596;2023-07-24T02:27:42;15.70;99.90
21662;DHT22;10992;48.170;8.596;2023-07-24T02:30:09;15.60;99.90
21662;DHT22;10992;48.170;8.596;2023-07-24T02:32:36;15.50;99.90
21662;DHT22;10992;48.170;8.596;2023-07-24T02:35:03;15.40;99.90
21662;DHT22;10992;48.170;8.596;2023-07-24T02:37:31;15.30;99.90
21662;DHT22;10992;48.170;8.596;2023-07-24T02:39:58;15.20;99.90
21662;DHT22;10992;48.170;8.596;2023-07-24T02:42:26;15.10;99.90
21662;DHT22;10992;48.170;8.596;2023-07-24T02:44:53;15.10;99.90
21662;DHT22;10992;48.170;8.596;2023-07-24T02:47:20;15.10;99.90
21662;DHT22;10992;48.170;8.596;2023-07-24T02:49:47;15.10;99.90
21662;DHT22;10992;48.170;8.596;2023-07-24T02:52:14;15.40;99.90
21662;DHT22;10992;48.170;8.596;2023-07-24T02:54:41;15.50;99.90
21662;DHT22;10992;48.170;8.596;2023-07-24T02:57:08;15.40;99.90
21662;DHT22;10992;48.170;8.596;2023-07-24T02:59:35;15.30;99.90
21662;DHT22;10992;48.170;8.596;2023-07-24T03:02:02;15.20;99.90
21662;DHT22;10992;48.170;8.596;2023-07-24T03:04:29;15.10;99.90
21662;DHT22;10992;48.170;8.596;2023-07-24T03:06:56;15.00;99.90
21662;DHT22;10992;48.170;8.596;2023-07-24T03:09:23;15.00;99.90
21662;DHT22;10992;48.170;8.596;2023-07-24T03:11:49;15.00;99.90
21662;DHT22;10992;48.170;8.596;2023-07-24T03:14:17;15.10;99.90
21662;DHT22;10992;48.170;8.596;2023-07-24T03:16:43;15.30;99.90
21662;DHT22;10992;48.170;8.596;2023-07-24T03:19:10;15.40;99.90
21662;DHT22;10992;48.170;8.596;2023-07-24T03:21:37;15.60;99.90
21662;DHT22;10992;48.170;8.596;2023-07-24T03:24:04;15.70;99.90
21662;DHT22;10992;48.170;8.596;2023-07-24T03:26:31;15.80;99.90
21662;DHT22;10992;48.170;8.596;2023-07-24T03:28:59;15.80;99.90
21662;DHT22;10992;48.170;8.596;2023-07-24T03:31:25;15.90;99.90
21662;DHT22;10992;48.170;8.596;2023-07-24T03:33:52;16.00;99.90
21662;DHT22;10992;48.170;8.596;2023-07-24T03:36:19;16.00;99.90
21662;DHT22;10992;48.170;8.596;2023-07-24T03:38:51;16.10;99.90
21662;DHT22;10992;48.170;8.596;2023-07-24T03:41:17;16.20;99.90
21662;DHT22;10992;48.170;8.596;2023-07-24T03:43:44;16.20;99.90
21662;DHT22;10992;48.170;8.596;2023-07-24T03:46:11;16.30;99.90
21662;DHT22;10992;48.170;8.596;2023-07-24T03:48:38;16.30;99.90
21662;DHT22;10992;48.170;8.596;2023-07-24T03:51:05;16.40;99.90
21662;DHT22;10992;48.170;8.596;2023-07-24T03:53:33;16.50;99.90
21662;DHT22;10992;48.170;8.596;2023-07-24T03:56:00;16.50;99.90
21662;DHT22;10992;48.170;8.596;2023-07-24T03:58:27;16.60;99.90
21662;DHT22;10992;48.170;8.596;2023-07-24T04:00:54;16.60;99.90
21662;DHT22;10992;48.170;8.596;2023-07-24T04:03:21;16.70;99.90
21662;DHT22;10992;48.170;8.596;2023-07-24T04:05:48;16.80;99.90
21662;DHT22;10992;48.170;8.596;2023-07-24T04:08:15;16.80;99.90
21662;DHT22;10992;48.170;8.596;2023-07-24T04:10:42;16.80;99.90
21662;DHT22;10992;48.170;8.596;2023-07-24T04:13:09;16.80;99.90
21662;DHT22;10992;48.170;8.596;2023-07-24T04:15:36;16.80;99.90
21662;DHT22;10992;48.170;8.596;2023-07-24T04:18:03;16.90;99.90
21662;DHT22;10992;48.170;8.596;2023-07-24T04:20:30;16.90;99.90
21662;DHT22;10992;48.170;8.596;2023-07-24T04:22:57;16.90;99.90
21662;DHT22;10992;48.170;8.596;2023-07-24T04:25:24;16.90;99.90
21662;DHT22;10992;48.170;8.596;2023-07-24T04:27:51;16.90;99.90
21662;DHT22;10992;48.170;8.596;2023-07-24T04:30:17;17.00;99.90
21662;DHT22;10992;48.170;8.596;2023-07-24T04:32:44;17.00;99.90
21662;DHT22;10992;48.170;8.596;2023-07-24T04:35:13;17.10;99.90
21662;DHT22;10992;48.170;8.596;2023-07-24T04:37:41;17.10;99.90
21662;DHT22;10992;48.170;8.596;2023-07-24T04:40:08;17.10;99.90
21662;DHT22;10992;48.170;8.596;2023-07-24T04:42:35;17.20;99.90
21662;DHT22;10992;48.170;8.596;2023-07-24T04:45:02;17.30;99.90
21662;DHT22;10992;48.170;8.596;2023-07-24T04:47:29;17.40;99.90
21662;DHT22;10992;48.170;8.596;2023-07-24T04:49:56;17.40;99.90
21662;DHT22;10992;48.170;8.596;2023-07-24T04:52:23;17.40;99.90
21662;DHT22;10992;48.170;8.596;2023-07-24T04:54:50;17.40;99.90
21662;DHT22;10992;48.170;8.596;2023-07-24T04:57:17;17.50;99.90
21662;DHT22;10992;48.170;8.596;2023-07-24T04:59:44;17.50;99.90
21662;DHT22;10992;48.170;8.596;2023-07-24T05:02:11;17.50;99.90
21662;DHT22;10992;48.170;8.596;2023-07-24T05:04:38;17.50;99.90
21662;DHT22;10992;48.170;8.596;2023-07-24T05:07:05;17.50;99.90
21662;DHT22;10992;48.170;8.596;2023-07-24T05:09:31;17.50;99.90
21662;DHT22;10992;48.170;8.596;2023-07-24T05:11:58;17.50;99.90
21662;DHT22;10992;48.170;8.596;2023-07-24T05:14:26;17.50;99.90
21662;DHT22;10992;48.170;8.596;2023-07-24T05:16:53;17.60;99.90
21662;DHT22;10992;48.170;8.596;2023-07-24T05:19:20;17.70;99.90
21662;DHT22;10992;48.170;8.596;2023-07-24T05:21:47;17.60;99.90
21662;DHT22;10992;48.170;8.596;2023-07-24T05:24:14;17.70;99.90
21662;DHT22;10992;48.170;8.596;2023-07-24T05:26:40;17.80;99.90
21662;DHT22;10992;48.170;8.596;2023-07-24T05:29:08;17.80;99.90
21662;DHT22;10992;48.170;8.596;2023-07-24T05:31:35;17.90;99.90
21662;DHT22;10992;48.170;8.596;2023-07-24T05:34:03;18.00;99.90
21662;DHT22;10992;48.170;8.596;2023-07-24T05:36:30;18.00;99.90
21662;DHT22;10992;48.170;8.596;2023-07-24T05:38:58;18.00;99.90
21662;DHT22;10992;48.170;8.596;2023-07-24T05:41:24;18.00;99.90
21662;DHT22;10992;48.170;8.596;2023-07-24T05:43:52;18.00;99.90
21662;DHT22;10992;48.170;8.596;2023-07-24T05:46:24;17.90;99.90
21662;DHT22;10992;48.170;8.596;2023-07-24T05:48:51;17.90;99.90
21662;DHT22;10992;48.170;8.596;2023-07-24T05:51:19;17.90;99.90
21662;DHT22;10992;48.170;8.596;2023-07-24T05:53:45;17.80;99.90
21662;DHT22;10992;48.170;8.596;2023-07-24T05:56:13;17.50;99.90
21662;DHT22;10992;48.170;8.596;2023-07-24T05:58:40;17.40;99.90
21662;DHT22;10992;48.170;8.596;2023-07-24T06:01:07;17.30;99.90
21662;DHT22;10992;48.170;8.596;2023-07-24T06:03:37;17.20;99.90
21662;DHT22;10992;48.170;8.596;2023-07-24T06:06:05;17.20;99.90
21662;DHT22;10992;48.170;8.596;2023-07-24T06:08:32;17.20;99.90
21662;DHT22;10992;48.170;8.596;2023-07-24T06:10:59;17.20;99.90
21662;DHT22;10992;48.170;8.596;2023-07-24T06:13:26;17.20;99.90
21662;DHT22;10992;48.170;8.596;2023-07-24T06:15:53;17.40;99.90
21662;DHT22;10992;48.170;8.596;2023-07-24T06:18:20;17.70;99.90
21662;DHT22;10992;48.170;8.596;2023-07-24T06:20:53;17.90;99.90
21662;DHT22;10992;48.170;8.596;2023-07-24T06:23:20;18.10;99.90
21662;DHT22;10992;48.170;8.596;2023-07-24T06:25:47;18.30;99.90
21662;DHT22;10992;48.170;8.596;2023-07-24T06:28:13;18.40;99.90
21662;DHT22;10992;48.170;8.596;2023-07-24T06:30:40;18.60;99.90
21662;DHT22;10992;48.170;8.596;2023-07-24T06:33:07;18.70;99.90
21662;DHT22;10992;48.170;8.596;2023-07-24T06:35:34;18.90;99.90
21662;DHT22;10992;48.170;8.596;2023-07-24T06:38:01;19.10;99.90
21662;DHT22;10992;48.170;8.596;2023-07-24T06:40:28;19.20;99.90
21662;DHT22;10992;48.170;8.596;2023-07-24T06:42:56;19.40;99.90
21662;DHT22;10992;48.170;8.596;2023-07-24T06:45:22;19.90;99.90
21662;DHT22;10992;48.170;8.596;2023-07-24T06:47:49;20.40;99.90
21662;DHT22;10992;48.170;8.596;2023-07-24T06:50:16;21.60;99.90
21662;DHT22;10992;48.170;8.596;2023-07-24T06:52:43;22.80;99.90
21662;DHT22;10992;48.170;8.596;2023-07-24T06:55:10;23.00;99.90
21662;DHT22;10992;48.170;8.596;2023-07-24T06:57:37;23.20;99.90
21662;DHT22;10992;48.170;8.596;2023-07-24T07:00:04;23.00;99.90
21662;DHT22;10992;48.170;8.596;2023-07-24T07:02:31;23.50;99.90
21662;DHT22;10992;48.170;8.596;2023-07-24T07:04:58;23.60;99.90
21662;DHT22;10992;48.170;8.596;2023-07-24T07:07:24;24.30;99.90
21662;DHT22;10992;48.170;8.596;2023-07-24T07:09:52;24.20;99.90
21662;DHT22;10992;48.170;8.596;2023-07-24T07:12:19;23.60;99.90
21662;DHT22;10992;48.170;8.596;2023-07-24T07:14:48;22.80;99.90
21662;DHT22;10992;48.170;8.596;2023-07-24T07:17:15;22.20;99.90
21662;DHT22;10992;48.170;8.596;2023-07-24T07:19:42;22.00;99.90
21662;DHT22;10992;48.170;8.596;2023-07-24T07:22:08;21.80;99.90
21662;DHT22;10992;48.170;8.596;2023-07-24T07:24:35;21.50;99.90
21662;DHT22;10992;48.170;8.596;2023-07-24T07:27:03;21.20;99.90
21662;DHT22;10992;48.170;8.596;2023-07-24T07:29:29;21.30;99.90
21662;DHT22;10992;48.170;8.596;2023-07-24T07:31:57;21.10;99.90
21662;DHT22;10992;48.170;8.596;2023-07-24T07:34:24;21.10;99.90
21662;DHT22;10992;48.170;8.596;2023-07-24T07:36:51;21.00;99.90
21662;DHT22;10992;48.170;8.596;2023-07-24T07:39:18;20.80;99.90
21662;DHT22;10992;48.170;8.596;2023-07-24T07:41:45;21.00;99.90
21662;DHT22;10992;48.170;8.596;2023-07-24T07:44:12;20.90;99.90
21662;DHT22;10992;48.170;8.596;2023-07-24T07:46:39;20.70;99.90
21662;DHT22;10992;48.170;8.596;2023-07-24T07:49:06;20.80;99.90
21662;DHT22;10992;48.170;8.596;2023-07-24T07:51:32;20.80;99.90
21662;DHT22;10992;48.170;8.596;2023-07-24T07:53:59;20.70;99.90
21662;DHT22;10992;48.170;8.596;2023-07-24T07:56:26;20.40;99.90
21662;DHT22;10992;48.170;8.596;2023-07-24T07:58:54;20.10;99.90
21662;DHT22;10992;48.170;8.596;2023-07-24T08:01:21;20.10;99.90
21662;DHT22;10992;48.170;8.596;2023-07-24T08:03:48;20.10;99.90
21662;DHT22;10992;48.170;8.596;2023-07-24T08:06:15;20.40;99.90
21662;DHT22;10992;48.170;8.596;2023-07-24T08:08:42;20.50;99.90
21662;DHT22;10992;48.170;8.596;2023-07-24T08:11:09;20.50;99.90
21662;DHT22;10992;48.170;8.596;2023-07-24T08:13:35;20.30;99.90
21662;DHT22;10992;48.170;8.596;2023-07-24T08:16:02;20.20;99.90
21662;DHT22;10992;48.170;8.596;2023-07-24T08:18:30;20.20;99.90
21662;DHT22;10992;48.170;8.596;2023-07-24T08:20:57;20.10;99.90
21662;DHT22;10992;48.170;8.596;2023-07-24T08:23:24;20.20;99.90
21662;DHT22;10992;48.170;8.596;2023-07-24T08:25:54;20.30;99.90
21662;DHT22;10992;48.170;8.596;2023-07-24T08:28:22;20.30;99.90
21662;DHT22;10992;48.170;8.596;2023-07-24T08:30:58;20.30;99.90
21662;DHT22;10992;48.170;8.596;2023-07-24T08:33:26;20.30;99.90
21662;DHT22;10992;48.170;8.596;2023-07-24T08:36:07;20.50;99.90
21662;DHT22;10992;48.170;8.596;2023-07-24T08:38:35;20.30;99.90
21662;DHT22;10992;48.170;8.596;2023-07-24T08:41:06;20.20;99.90
21662;DHT22;10992;48.170;8.596;2023-07-24T08:43:35;20.20;99.90
21662;DHT22;10992;48.170;8.596;2023-07-24T08:46:03;20.10;99.90
21662;DHT22;10992;48.170;8.596;2023-07-24T08:48:32;20.10;99.90
21662;DHT22;10992;48.170;8.596;2023-07-24T08:51:04;20.40;99.90
21662;DHT22;10992;48.170;8.596;2023-07-24T08:53:33;20.60;99.90
21662;DHT22;10992;48.170;8.596;2023-07-24T08:56:07;20.80;99.90
21662;DHT22;10992;48.170;8.596;2023-07-24T08:58:35;20.50;99.90
21662;DHT22;10992;48.170;8.596;2023-07-24T09:01:03;20.40;99.90
21662;DHT22;10992;48.170;8.596;2023-07-24T09:03:31;20.40;99.90
21662;DHT22;10992;48.170;8.596;2023-07-24T09:05:59;20.30;99.90
21662;DHT22;10992;48.170;8.596;2023-07-24T09:08:38;20.10;99.90
21662;DHT22;10992;48.170;8.596;2023-07-24T09:11:07;20.10;99.90
21662;DHT22;10992;48.170;8.596;2023-07-24T09:13:36;20.10;99.90
21662;DHT22;10992;48.170;8.596;2023-07-24T09:16:03;20.10;99.90
21662;DHT22;10992;48.170;8.596;2023-07-24T09:18:41;20.00;99.90
21662;DHT22;10992;48.170;8.596;2023-07-24T09:21:11;19.60;99.90
21662;DHT22;10992;48.170;8.596;2023-07-24T09:23:41;19.40;99.90
21662;DHT22;10992;48.170;8.596;2023-07-24T09:26:10;19.40;99.90
21662;DHT22;10992;48.170;8.596;2023-07-24T09:28:37;19.40;99.90
21662;DHT22;10992;48.170;8.596;2023-07-24T09:31:04;19.40;99.90
21662;DHT22;10992;48.170;8.596;2023-07-24T09:33:39;19.40;99.90
21662;DHT22;10992;48.170;8.596;2023-07-24T09:36:08;19.30;99.90
21662;DHT22;10992;48.170;8.596;2023-07-24T09:38:36;19.20;99.90
21662;DHT22;10992;48.170;8.596;2023-07-24T09:41:04;19.10;99.90
21662;DHT22;10992;48.170;8.596;2023-07-24T09:43:32;19.00;99.90
21662;DHT22;10992;48.170;8.596;2023-07-24T09:46:04;18.80;99.90
21662;DHT22;10992;48.170;8.596;2023-07-24T09:48:32;18.70;99.90
21662;DHT22;10992;48.170;8.596;2023-07-24T09:51:11;18.60;99.90
21662;DHT22;10992;48.170;8.596;2023-07-24T09:53:45;18.60;99.90
21662;DHT22;10992;48.170;8.596;2023-07-24T09:56:17;18.60;99.90
21662;DHT22;10992;48.170;8.596;2023-07-24T09:58:44;18.50;99.90
21662;DHT22;10992;48.170;8.596;2023-07-24T10:01:11;18.40;99.90
21662;DHT22;10992;48.170;8.596;2023-07-24T10:03:40;18.30;99.90
21662;DHT22;10992;48.170;8.596;2023-07-24T10:06:09;18.20;99.90
21662;DHT22;10992;48.170;8.596;2023-07-24T10:08:39;18.00;99.90
21662;DHT22;10992;48.170;8.596;2023-07-24T10:11:08;17.80;99.90
21662;DHT22;10992;48.170;8.596;2023-07-24T10:13:36;17.70;99.90
21662;DHT22;10992;48.170;8.596;2023-07-24T10:16:04;17.60;99.90
21662;DHT22;10992;48.170;8.596;2023-07-24T10:18:35;17.70;99.90
21662;DHT22;10992;48.170;8.596;2023-07-24T10:21:03;17.90;99.90
21662;DHT22;10992;48.170;8.596;2023-07-24T10:23:30;17.90;99.90
21662;DHT22;10992;48.170;8.596;2023-07-24T10:26:05;17.90;99.90
21662;DHT22;10992;48.170;8.596;2023-07-24T10:28:39;17.90;99.90
21662;DHT22;10992;48.170;8.596;2023-07-24T10:31:26;17.80;99.90
21662;DHT22;10992;48.170;8.596;2023-07-24T10:34:07;17.60;99.90
21662;DHT22;10992;48.170;8.596;2023-07-24T10:36:35;17.60;99.90
21662;DHT22;10992;48.170;8.596;2023-07-24T10:39:12;17.40;99.90
21662;DHT22;10992;48.170;8.596;2023-07-24T10:41:39;17.30;99.90
21662;DHT22;10992;48.170;8.596;2023-07-24T10:44:07;17.20;99.90
21662;DHT22;10992;48.170;8.596;2023-07-24T10:46:38;17.10;99.90
21662;DHT22;10992;48.170;8.596;2023-07-24T10:49:07;17.00;99.90
21662;DHT22;10992;48.170;8.596;2023-07-24T10:51:35;16.90;99.90
21662;DHT22;10992;48.170;8.596;2023-07-24T10:54:05;16.90;99.90
21662;DHT22;10992;48.170;8.596;2023-07-24T10:56:32;16.80;99.90
21662;DHT22;10992;48.170;8.596;2023-07-24T10:59:05;17.10;99.90
21662;DHT22;10992;48.170;8.596;2023-07-24T11:01:33;17.60;99.90
21662;DHT22;10992;48.170;8.596;2023-07-24T11:04:02;17.80;99.90
21662;DHT22;10992;48.170;8.596;2023-07-24T11:06:44;17.90;99.90
21662;DHT22;10992;48.170;8.596;2023-07-24T11:09:15;18.00;99.90
21662;DHT22;10992;48.170;8.596;2023-07-24T11:11:51;18.30;99.90
21662;DHT22;10992;48.170;8.596;2023-07-24T11:14:20;18.30;99.90
21662;DHT22;10992;48.170;8.596;2023-07-24T11:16:50;18.40;99.90
21662;DHT22;10992;48.170;8.596;2023-07-24T11:19:24;18.70;99.90
21662;DHT22;10992;48.170;8.596;2023-07-24T11:21:52;19.00;99.90
21662;DHT22;10992;48.170;8.596;2023-07-24T11:24:19;19.10;99.90
21662;DHT22;10992;48.170;8.596;2023-07-24T11:26:46;19.20;99.90
21662;DHT22;10992;48.170;8.596;2023-07-24T11:29:13;19.30;99.90
21662;DHT22;10992;48.170;8.596;2023-07-24T11:31:40;19.40;99.90
21662;DHT22;10992;48.170;8.596;2023-07-24T11:34:07;19.20;99.90
21662;DHT22;10992;48.170;8.596;2023-07-24T11:36:37;19.30;99.90
21662;DHT22;10992;48.170;8.596;2023-07-24T11:39:03;19.50;99.90
21662;DHT22;10992;48.170;8.596;2023-07-24T11:41:30;19.50;99.90
21662;DHT22;10992;48.170;8.596;2023-07-24T11:43:58;19.60;99.90
21662;DHT22;10992;48.170;8.596;2023-07-24T11:46:26;19.80;99.90
21662;DHT22;10992;48.170;8.596;2023-07-24T11:48:54;19.50;99.90
21662;DHT22;10992;48.170;8.596;2023-07-24T11:51:25;19.30;99.90
21662;DHT22;10992;48.170;8.596;2023-07-24T11:54:05;19.30;99.90
21662;DHT22;10992;48.170;8.596;2023-07-24T11:56:33;19.20;99.90
21662;DHT22;10992;48.170;8.596;2023-07-24T11:59:14;19.00;99.90
21662;DHT22;10992;48.170;8.596;2023-07-24T12:01:46;19.10;99.90
21662;DHT22;10992;48.170;8.596;2023-07-24T12:04:16;19.10;99.90
21662;DHT22;10992;48.170;8.596;2023-07-24T12:06:45;19.40;99.90
21662;DHT22;10992;48.170;8.596;2023-07-24T12:09:12;19.70;99.90
21662;DHT22;10992;48.170;8.596;2023-07-24T12:11:43;19.80;99.90
21662;DHT22;10992;48.170;8.596;2023-07-24T12:14:13;20.00;99.90
21662;DHT22;10992;48.170;8.596;2023-07-24T12:16:44;20.10;99.90
21662;DHT22;10992;48.170;8.596;2023-07-24T12:19:13;20.10;99.90
21662;DHT22;10992;48.170;8.596;2023-07-24T12:21:47;19.90;99.90
21662;DHT22;10992;48.170;8.596;2023-07-24T12:24:14;20.00;99.90
21662;DHT22;10992;48.170;8.596;2023-07-24T12:26:42;20.40;99.90
21662;DHT22;10992;48.170;8.596;2023-07-24T12:29:12;21.20;99.90
21662;DHT22;10992;48.170;8.596;2023-07-24T12:31:45;22.40;99.90
21662;DHT22;10992;48.170;8.596;2023-07-24T12:34:12;22.70;99.90
21662;DHT22;10992;48.170;8.596;2023-07-24T12:36:39;23.20;99.90
21662;DHT22;10992;48.170;8.596;2023-07-24T12:39:06;23.10;99.90
21662;DHT22;10992;48.170;8.596;2023-07-24T12:41:33;23.10;99.90
21662;DHT22;10992;48.170;8.596;2023-07-24T12:44:00;23.10;99.90
21662;DHT22;10992;48.170;8.596;2023-07-24T12:46:27;22.50;99.90
21662;DHT22;10992;48.170;8.596;2023-07-24T12:48:54;22.30;99.90
21662;DHT22;10992;48.170;8.596;2023-07-24T12:51:21;22.20;99.90
21662;DHT22;10992;48.170;8.596;2023-07-24T12:53:48;21.80;99.90
21662;DHT22;10992;48.170;8.596;2023-07-24T12:56:34;21.50;99.90
21662;DHT22;10992;48.170;8.596;2023-07-24T12:59:01;21.30;99.90
21662;DHT22;10992;48.170;8.596;2023-07-24T13:01:29;20.90;99.90
21662;DHT22;10992;48.170;8.596;2023-07-24T13:03:57;20.60;99.90
21662;DHT22;10992;48.170;8.596;2023-07-24T13:06:24;20.20;99.90
21662;DHT22;10992;48.170;8.596;2023-07-24T13:08:51;19.90;99.90
21662;DHT22;10992;48.170;8.596;2023-07-24T13:11:18;19.80;99.90
21662;DHT22;10992;48.170;8.596;2023-07-24T13:13:45;19.60;99.90
21662;DHT22;10992;48.170;8.596;2023-07-24T13:16:12;19.40;99.90
21662;DHT22;10992;48.170;8.596;2023-07-24T13:18:39;19.10;99.90
21662;DHT22;10992;48.170;8.596;2023-07-24T13:21:06;18.90;99.90
21662;DHT22;10992;48.170;8.596;2023-07-24T13:23:34;18.70;99.90
21662;DHT22;10992;48.170;8.596;2023-07-24T13:26:01;18.50;99.90
21662;DHT22;10992;48.170;8.596;2023-07-24T13:28:29;18.30;99.90
21662;DHT22;10992;48.170;8.596;2023-07-24T13:30:55;18.00;99.90
21662;DHT22;10992;48.170;8.596;2023-07-24T13:33:22;17.90;99.90
21662;DHT22;10992;48.170;8.596;2023-07-24T13:35:50;17.90;99.90
21662;DHT22;10992;48.170;8.596;2023-07-24T13:38:16;17.80;99.90
21662;DHT22;10992;48.170;8.596;2023-07-24T13:40:47;17.70;99.90
21662;DHT22;10992;48.170;8.596;2023-07-24T13:43:14;17.60;99.90
21662;DHT22;10992;48.170;8.596;2023-07-24T13:45:42;17.60;99.90
21662;DHT22;10992;48.170;8.596;2023-07-24T13:48:09;17.60;99.90
21662;DHT22;10992;48.170;8.596;2023-07-24T13:50:36;17.50;99.90
21662;DHT22;10992;48.170;8.596;2023-07-24T13:53:03;17.40;99.90
21662;DHT22;10992;48.170;8.596;2023-07-24T13:55:30;17.30;99.90
21662;DHT22;10992;48.170;8.596;2023-07-24T13:57:56;17.20;99.90
21662;DHT22;10992;48.170;8.596;2023-07-24T14:00:23;17.20;99.90
21662;DHT22;10992;48.170;8.596;2023-07-24T14:02:50;17.10;99.90
21662;DHT22;10992;48.170;8.596;2023-07-24T14:05:17;17.10;99.90
21662;DHT22;10992;48.170;8.596;2023-07-24T14:07:45;17.10;99.90
21662;DHT22;10992;48.170;8.596;2023-07-24T14:10:12;17.20;99.90
21662;DHT22;10992;48.170;8.596;2023-07-24T14:12:39;17.10;99.90
21662;DHT22;10992;48.170;8.596;2023-07-24T14:15:06;17.10;99.90
21662;DHT22;10992;48.170;8.596;2023-07-24T14:17:36;17.10;99.90
21662;DHT22;10992;48.170;8.596;2023-07-24T14:20:03;17.30;99.90
21662;DHT22;10992;48.170;8.596;2023-07-24T14:22:31;17.30;99.90
21662;DHT22;10992;48.170;8.596;2023-07-24T14:24:59;17.40;99.90
21662;DHT22;10992;48.170;8.596;2023-07-24T14:27:28;17.50;99.90
21662;DHT22;10992;48.170;8.596;2023-07-24T14:30:02;17.60;99.90
21662;DHT22;10992;48.170;8.596;2023-07-24T14:32:32;17.70;99.90
21662;DHT22;10992;48.170;8.596;2023-07-24T14:35:00;17.90;99.90
21662;DHT22;10992;48.170;8.596;2023-07-24T14:37:31;18.20;99.90
21662;DHT22;10992;48.170;8.596;2023-07-24T14:39:58;18.40;99.90
21662;DHT22;10992;48.170;8.596;2023-07-24T14:42:26;18.60;99.90
21662;DHT22;10992;48.170;8.596;2023-07-24T14:44:56;18.70;99.90
21662;DHT22;10992;48.170;8.596;2023-07-24T14:47:31;18.90;99.90
21662;DHT22;10992;48.170;8.596;2023-07-24T14:50:02;18.90;99.90
21662;DHT22;10992;48.170;8.596;2023-07-24T14:52:34;19.10;99.90
21662;DHT22;10992;48.170;8.596;2023-07-24T14:55:02;19.60;99.90
21662;DHT22;10992;48.170;8.596;2023-07-24T14:57:36;19.80;99.90
21662;DHT22;10992;48.170;8.596;2023-07-24T15:00:04;19.90;99.90
21662;DHT22;10992;48.170;8.596;2023-07-24T15:02:32;19.80;99.90
21662;DHT22;10992;48.170;8.596;2023-07-24T15:05:01;19.90;99.90
21662;DHT22;10992;48.170;8.596;2023-07-24T15:07:29;20.20;99.90
21662;DHT22;10992;48.170;8.596;2023-07-24T15:09:58;19.90;99.90
21662;DHT22;10992;48.170;8.596;2023-07-24T15:12:25;19.50;99.90
21662;DHT22;10992;48.170;8.596;2023-07-24T15:14:53;19.40;99.90
21662;DHT22;10992;48.170;8.596;2023-07-24T15:17:21;19.40;99.90
21662;DHT22;10992;48.170;8.596;2023-07-24T15:19:49;19.60;99.90
21662;DHT22;10992;48.170;8.596;2023-07-24T15:22:17;19.70;99.90
21662;DHT22;10992;48.170;8.596;2023-07-24T15:24:54;19.60;99.90
21662;DHT22;10992;48.170;8.596;2023-07-24T15:27:21;19.60;99.90
21662;DHT22;10992;48.170;8.596;2023-07-24T15:29:48;19.60;99.90
21662;DHT22;10992;48.170;8.596;2023-07-24T15:32:16;19.60;99.90
21662;DHT22;10992;48.170;8.596;2023-07-24T15:34:44;19.50;99.90
21662;DHT22;10992;48.170;8.596;2023-07-24T15:37:12;19.30;99.90
21662;DHT22;10992;48.170;8.596;2023-07-24T15:42:07;19.20;99.90